Terminal Aerodrome Forecast
Issued by NWS

Home | Current Version | Previous Version | Text Only | Print | Product List | Glossary On
Versions: 1 2 3 4 5 6 7 8 9 10 11 12 13 14 15 16
000
FTUS41 KBTV 192050 AAA
TAFSLK
TAF AMD
KSLK 192050Z 1921/2018 20007KT P6SM -SHRA OVC025
     FM200200 22004KT 5SM -SHRA BR OVC012
     FM200400 22004KT 4SM -RA BR OVC008
     FM201100 22006KT 3SM -RA BR OVC008 WS020/25035KT
     FM201400 22007KT 4SM -RA BR OVC008=

USA.gov is the U.S. government's official web portal to all federal, state and local government web resources and services.